sensor_id;sensor_type;location;lat;lon;timestamp;pressure;altitude;pressure_sealevel;temperature;humidity
61500;BME280;47361;49.996;19.918;2023-06-22T00:02:23;98911.36;;;20.3;75
61500;BME280;47361;49.996;19.918;2023-06-22T00:04:23;98911.86;;;20.4;75
61500;BME280;47361;49.996;19.918;2023-06-22T00:06:23;98915.08;;;20.3;75
61500;BME280;47361;49.996;19.918;2023-06-22T00:08:23;98910.41;;;20.2;75
61500;BME280;47361;49.996;19.918;2023-06-22T00:09:24;98914.48000000001;;;20.3;75
61500;BME280;47361;49.996;19.918;2023-06-22T00:14:23;98921.78;;;20.4;76
61500;BME280;47361;49.996;19.918;2023-06-22T00:15:23;98919.83;;;20.5;76
61500;BME280;47361;49.996;19.918;2023-06-22T00:17:23;98920.4;;;20.6;75
61500;BME280;47361;49.996;19.918;2023-06-22T00:19:23;98926.11;;;20.7;74
61500;BME280;47361;49.996;19.918;2023-06-22T00:22:24;98942.02;;;20.6;75
61500;BME280;47361;49.996;19.918;2023-06-22T00:24:24;98952.06;;;20.7;75
61500;BME280;47361;49.996;19.918;2023-06-22T00:27:23;98951.25;;;20.6;75
61500;BME280;47361;49.996;19.918;2023-06-22T00:28:23;98948.63;;;20.7;75
61500;BME280;47361;49.996;19.918;2023-06-22T00:29:23;98949.97;;;20.8;75
61500;BME280;47361;49.996;19.918;2023-06-22T00:33:24;98944.70999999999;;;20.7;75
61500;BME280;47361;49.996;19.918;2023-06-22T00:34:23;98941.02;;;20.8;75
61500;BME280;47361;49.996;19.918;2023-06-22T00:35:24;98932.54;;;20.7;75
61500;BME280;47361;49.996;19.918;2023-06-22T00:39:23;98936.85;;;20.8;76
61500;BME280;47361;49.996;19.918;2023-06-22T00:42:23;98942.61;;;20.9;76
61500;BME280;47361;49.996;19.918;2023-06-22T00:44:24;98939.06;;;21.0;75
61500;BME280;47361;49.996;19.918;2023-06-22T00:46:23;98932.89;;;20.9;75
61500;BME280;47361;49.996;19.918;2023-06-22T00:49:23;98930.19;;;21.0;75
61500;BME280;47361;49.996;19.918;2023-06-22T00:54:24;98925.73999999999;;;21.1;75
61500;BME280;47361;49.996;19.918;2023-06-22T00:55:24;98926.25;;;21.2;75
61500;BME280;47361;49.996;19.918;2023-06-22T00:56:23;98922.88;;;21.1;74
61500;BME280;47361;49.996;19.918;2023-06-22T00:58:23;98919.84;;;21.0;74
61500;BME280;47361;49.996;19.918;2023-06-22T01:01:23;98925.5;;;20.9;74
61500;BME280;47361;49.996;19.918;2023-06-22T01:03:23;98926.56;;;20.8;75
61500;BME280;47361;49.996;19.918;2023-06-22T01:06:26;98909.38;;;20.7;75
61500;BME280;47361;49.996;19.918;2023-06-22T01:07:25;98909.23;;;20.6;75
61500;BME280;47361;49.996;19.918;2023-06-22T01:11:26;98905.89;;;20.5;76
61500;BME280;47361;49.996;19.918;2023-06-22T01:13:26;98911.55;;;20.4;76
61500;BME280;47361;49.996;19.918;2023-06-22T01:14:25;98907.14;;;20.5;76
61500;BME280;47361;49.996;19.918;2023-06-22T01:15:25;98911.7;;;20.6;76
61500;BME280;47361;49.996;19.918;2023-06-22T01:18:24;98906.33;;;20.7;75
61500;BME280;47361;49.996;19.918;2023-06-22T01:19:28;98905.9;;;20.8;75
61500;BME280;47361;49.996;19.918;2023-06-22T01:21:24;98901.34000000001;;;20.7;75
61500;BME280;47361;49.996;19.918;2023-06-22T01:26:25;98890.75;;;20.6;74
61500;BME280;47361;49.996;19.918;2023-06-22T01:27:28;98891.92;;;20.5;75
61500;BME280;47361;49.996;19.918;2023-06-22T01:29:24;98888.37;;;20.6;75
61500;BME280;47361;49.996;19.918;2023-06-22T01:34:24;98892.56;;;20.7;74
61500;BME280;47361;49.996;19.918;2023-06-22T01:35:24;98898.39;;;20.6;74
61500;BME280;47361;49.996;19.918;2023-06-22T01:39:23;98903.28;;;20.7;74
61500;BME280;47361;49.996;19.918;2023-06-22T01:41:25;98908.29;;;20.6;75
61500;BME280;47361;49.996;19.918;2023-06-22T01:46:24;98908.4;;;20.5;74
61500;BME280;47361;49.996;19.918;2023-06-22T01:48:23;98915.59999999999;;;20.4;75
61500;BME280;47361;49.996;19.918;2023-06-22T01:55:24;98920.33;;;20.5;75
61500;BME280;47361;49.996;19.918;2023-06-22T01:57:24;98919.58;;;20.4;75
61500;BME280;47361;49.996;19.918;2023-06-22T01:59:25;98917.88;;;20.5;75
61500;BME280;47361;49.996;19.918;2023-06-22T02:01:24;98918.04;;;20.4;75
61500;BME280;47361;49.996;19.918;2023-06-22T02:03:26;98915.0;;;20.3;75
61500;BME280;47361;49.996;19.918;2023-06-22T02:05:24;98915.67;;;20.2;75
61500;BME280;47361;49.996;19.918;2023-06-22T02:07:24;98915.37;;;20.1;76
61500;BME280;47361;49.996;19.918;2023-06-22T02:08:25;98912.75;;;20.0;77
61500;BME280;47361;49.996;19.918;2023-06-22T02:09:24;98913.5;;;20.1;77
61500;BME280;47361;49.996;19.918;2023-06-22T02:10:24;98914.23999999999;;;20.0;77
61500;BME280;47361;49.996;19.918;2023-06-22T02:12:24;98909.99;;;19.9;78
61500;BME280;47361;49.996;19.918;2023-06-22T02:19:24;98913.23;;;20.0;77
61500;BME280;47361;49.996;19.918;2023-06-22T02:24:24;98918.66;;;20.1;77
61500;BME280;47361;49.996;19.918;2023-06-22T02:26:24;98919.51000000001;;;20.2;77
61500;BME280;47361;49.996;19.918;2023-06-22T02:29:24;98919.64;;;20.3;76
61500;BME280;47361;49.996;19.918;2023-06-22T02:34:24;98919.65;;;20.4;76
61500;BME280;47361;49.996;19.918;2023-06-22T02:36:24;98926.33;;;20.3;75
61500;BME280;47361;49.996;19.918;2023-06-22T02:42:24;98930.03;;;20.2;75
61500;BME280;47361;49.996;19.918;2023-06-22T02:44:24;98930.45;;;20.3;75
61500;BME280;47361;49.996;19.918;2023-06-22T02:45:24;98932.72;;;20.2;75
61500;BME280;47361;49.996;19.918;2023-06-22T02:47:24;98933.62;;;20.1;76
61500;BME280;47361;49.996;19.918;2023-06-22T02:49:24;98932.56;;;20.2;76
61500;BME280;47361;49.996;19.918;2023-06-22T02:50:24;98930.53;;;20.3;76
61500;BME280;47361;49.996;19.918;2023-06-22T02:54:24;98941.88;;;20.4;75
61500;BME280;47361;49.996;19.918;2023-06-22T02:56:24;98943.73000000001;;;20.5;75
61500;BME280;47361;49.996;19.918;2023-06-22T02:59:24;98945.53;;;20.6;75
61500;BME280;47361;49.996;19.918;2023-06-22T03:01:24;98949.5;;;20.5;75
61500;BME280;47361;49.996;19.918;2023-06-22T03:05:24;98948.39;;;20.4;74
61500;BME280;47361;49.996;19.918;2023-06-22T03:06:24;98958.0;;;20.3;74
61500;BME280;47361;49.996;19.918;2023-06-22T03:10:24;98953.83;;;20.2;75
61500;BME280;47361;49.996;19.918;2023-06-22T03:12:24;98957.51000000001;;;20.1;76
61500;BME280;47361;49.996;19.918;2023-06-22T03:16:24;98950.97;;;20.0;77
61500;BME280;47361;49.996;19.918;2023-06-22T03:18:24;98954.19;;;19.9;77
61500;BME280;47361;49.996;19.918;2023-06-22T03:21:25;98954.38;;;19.8;77
61500;BME280;47361;49.996;19.918;2023-06-22T03:25:24;98967.98999999999;;;19.7;77
61500;BME280;47361;49.996;19.918;2023-06-22T03:26:24;98971.23;;;19.6;78
61500;BME280;47361;49.996;19.918;2023-06-22T03:29:24;98973.03;;;19.5;79
61500;BME280;47361;49.996;19.918;2023-06-22T03:31:24;98970.01000000001;;;19.4;79
61500;BME280;47361;49.996;19.918;2023-06-22T03:35:24;98965.84;;;19.3;80
61500;BME280;47361;49.996;19.918;2023-06-22T03:38:24;98975.48000000001;;;19.2;81
61500;BME280;47361;49.996;19.918;2023-06-22T03:39:24;98972.13;;;19.3;80
61500;BME280;47361;49.996;19.918;2023-06-22T03:41:24;98977.15;;;19.2;80
61500;BME280;47361;49.996;19.918;2023-06-22T03:44:24;98973.32;;;19.3;80
61500;BME280;47361;49.996;19.918;2023-06-22T03:51:24;98980.38;;;19.2;80
61500;BME280;47361;49.996;19.918;2023-06-22T03:54:24;98988.72;;;19.3;81
61500;BME280;47361;49.996;19.918;2023-06-22T03:55:24;98991.52;;;19.2;81
61500;BME280;47361;49.996;19.918;2023-06-22T04:01:24;98992.19;;;19.1;81
61500;BME280;47361;49.996;19.918;2023-06-22T04:03:24;98994.41;;;19.2;81
61500;BME280;47361;49.996;19.918;2023-06-22T04:09:24;99001.34000000001;;;19.3;81
61500;BME280;47361;49.996;19.918;2023-06-22T04:13:24;98998.51999999999;;;19.4;81
61500;BME280;47361;49.996;19.918;2023-06-22T04:19:24;99005.58;;;19.5;80
61500;BME280;47361;49.996;19.918;2023-06-22T04:20:24;99001.59;;;19.4;81
61500;BME280;47361;49.996;19.918;2023-06-22T04:23:24;99000.44;;;19.5;81
61500;BME280;47361;49.996;19.918;2023-06-22T04:29:24;99008.76;;;19.6;81
61500;BME280;47361;49.996;19.918;2023-06-22T04:31:24;99013.06;;;19.5;81
61500;BME280;47361;49.996;19.918;2023-06-22T04:33:24;99009.03;;;19.6;81
61500;BME280;47361;49.996;19.918;2023-06-22T04:37:24;99013.2;;;19.7;82
61500;BME280;47361;49.996;19.918;2023-06-22T04:39:24;99016.41;;;19.8;82
61500;BME280;47361;49.996;19.918;2023-06-22T04:43:24;99020.47;;;19.9;82
61500;BME280;47361;49.996;19.918;2023-06-22T04:47:24;99017.62999999999;;;20.0;82
61500;BME280;47361;49.996;19.918;2023-06-22T04:49:24;99017.5;;;20.1;81
61500;BME280;47361;49.996;19.918;2023-06-22T04:51:24;99018.8;;;20.2;82
61500;BME280;47361;49.996;19.918;2023-06-22T04:54:24;99024.77;;;20.3;81
61500;BME280;47361;49.996;19.918;2023-06-22T04:57:24;99027.98;;;20.4;81
61500;BME280;47361;49.996;19.918;2023-06-22T04:59:24;99028.54999999999;;;20.5;81
61500;BME280;47361;49.996;19.918;2023-06-22T05:03:24;99026.2;;;20.6;80
61500;BME280;47361;49.996;19.918;2023-06-22T05:04:24;99025.41;;;20.7;80
61500;BME280;47361;49.996;19.918;2023-06-22T05:08:24;99031.5;;;20.8;80
61500;BME280;47361;49.996;19.918;2023-06-22T05:14:24;99023.73999999999;;;20.9;79
61500;BME280;47361;49.996;19.918;2023-06-22T05:23:24;99024.58;;;21.0;79
61500;BME280;47361;49.996;19.918;2023-06-22T05:24:24;99025.51;;;21.1;79
61500;BME280;47361;49.996;19.918;2023-06-22T05:25:24;99026.89;;;21.2;79
61500;BME280;47361;49.996;19.918;2023-06-22T05:27:24;99030.76999999999;;;21.3;79
61500;BME280;47361;49.996;19.918;2023-06-22T05:29:24;99027.45;;;21.4;77
61500;BME280;47361;49.996;19.918;2023-06-22T05:33:24;99023.99;;;21.5;77
61500;BME280;47361;49.996;19.918;2023-06-22T05:36:24;99022.88;;;21.6;77
61500;BME280;47361;49.996;19.918;2023-06-22T05:39:24;99032.44;;;21.7;77
61500;BME280;47361;49.996;19.918;2023-06-22T05:43:24;99035.94;;;21.8;76
61500;BME280;47361;49.996;19.918;2023-06-22T05:45:24;99036.21;;;21.9;76
61500;BME280;47361;49.996;19.918;2023-06-22T05:48:24;99036.56999999999;;;22.0;76
61500;BME280;47361;49.996;19.918;2023-06-22T05:52:24;99040.23999999999;;;21.9;75
61500;BME280;47361;49.996;19.918;2023-06-22T05:53:24;99039.11;;;22.0;75
61500;BME280;47361;49.996;19.918;2023-06-22T05:57:24;99046.22;;;22.1;75
61500;BME280;47361;49.996;19.918;2023-06-22T06:02:24;99054.14;;;22.2;75
61500;BME280;47361;49.996;19.918;2023-06-22T06:03:24;99059.59;;;22.3;75
61500;BME280;47361;49.996;19.918;2023-06-22T06:05:24;99057.3;;;22.4;75
61500;BME280;47361;49.996;19.918;2023-06-22T06:08:24;99065.12;;;22.5;74
61500;BME280;47361;49.996;19.918;2023-06-22T06:13:24;99067.56;;;22.6;74
61500;BME280;47361;49.996;19.918;2023-06-22T06:22:24;99068.08;;;22.7;74
61500;BME280;47361;49.996;19.918;2023-06-22T06:24:24;99066.08;;;22.8;74
61500;BME280;47361;49.996;19.918;2023-06-22T06:30:24;99067.55;;;22.9;74
61500;BME280;47361;49.996;19.918;2023-06-22T06:36:24;99077.31;;;23.0;73
61500;BME280;47361;49.996;19.918;2023-06-22T06:39:24;99073.78;;;23.1;73
61500;BME280;47361;49.996;19.918;2023-06-22T06:43:24;99073.67;;;23.3;73
61500;BME280;47361;49.996;19.918;2023-06-22T06:45:24;99071.86;;;23.4;73
61500;BME280;47361;49.996;19.918;2023-06-22T06:48:24;99070.24;;;23.6;72
61500;BME280;47361;49.996;19.918;2023-06-22T06:50:24;99074.33;;;23.7;71
61500;BME280;47361;49.996;19.918;2023-06-22T06:52:24;99077.0;;;23.8;71
61500;BME280;47361;49.996;19.918;2023-06-22T06:53:24;99081.61;;;23.9;71
61500;BME280;47361;49.996;19.918;2023-06-22T06:57:24;99072.86;;;24.0;71
61500;BME280;47361;49.996;19.918;2023-06-22T07:01:24;99078.89;;;23.9;70
61500;BME280;47361;49.996;19.918;2023-06-22T07:03:24;99074.57;;;24.0;70
61500;BME280;47361;49.996;19.918;2023-06-22T07:06:24;99071.23;;;24.1;71
61500;BME280;47361;49.996;19.918;2023-06-22T07:08:24;99065.29000000001;;;24.2;69
61500;BME280;47361;49.996;19.918;2023-06-22T07:11:24;99067.11;;;24.3;70
61500;BME280;47361;49.996;19.918;2023-06-22T07:12:24;99066.74;;;24.4;70
61500;BME280;47361;49.996;19.918;2023-06-22T07:13:24;99068.76999999999;;;24.5;70
61500;BME280;47361;49.996;19.918;2023-06-22T07:14:24;99070.2;;;24.6;69
61500;BME280;47361;49.996;19.918;2023-06-22T07:22:24;99066.85;;;24.7;68
61500;BME280;47361;49.996;19.918;2023-06-22T07:23:24;99069.94;;;24.8;69
61500;BME280;47361;49.996;19.918;2023-06-22T07:24:24;99066.99;;;24.9;68
61500;BME280;47361;49.996;19.918;2023-06-22T07:25:24;99069.19;;;25.0;68
61500;BME280;47361;49.996;19.918;2023-06-22T07:27:24;99065.59;;;25.1;68
61500;BME280;47361;49.996;19.918;2023-06-22T07:28:24;99062.68;;;25.2;68
61500;BME280;47361;49.996;19.918;2023-06-22T07:29:24;99061.47;;;25.3;67
61500;BME280;47361;49.996;19.918;2023-06-22T07:33:24;99054.90999999999;;;25.4;66
61500;BME280;47361;49.996;19.918;2023-06-22T07:39:24;99045.08;;;25.5;66
61500;BME280;47361;49.996;19.918;2023-06-22T07:41:24;99046.09;;;25.6;65
61500;BME280;47361;49.996;19.918;2023-06-22T07:43:24;99047.14;;;25.7;65
61500;BME280;47361;49.996;19.918;2023-06-22T07:44:24;99049.62000000001;;;25.6;64
61500;BME280;47361;49.996;19.918;2023-06-22T07:46:24;99044.98;;;25.7;65
61500;BME280;47361;49.996;19.918;2023-06-22T07:47:24;99045.2;;;25.6;64
61500;BME280;47361;49.996;19.918;2023-06-22T07:48:24;99044.12;;;25.7;64
61500;BME280;47361;49.996;19.918;2023-06-22T07:53:24;99050.45;;;25.8;64
61500;BME280;47361;49.996;19.918;2023-06-22T07:54:24;99054.02;;;25.9;65
61500;BME280;47361;49.996;19.918;2023-06-22T07:55:24;99052.64;;;26.0;65
61500;BME280;47361;49.996;19.918;2023-06-22T07:57:24;99051.29;;;26.1;65
61500;BME280;47361;49.996;19.918;2023-06-22T07:58:24;99054.1;;;26.2;63
61500;BME280;47361;49.996;19.918;2023-06-22T08:03:24;99053.23;;;26.3;62
61500;BME280;47361;49.996;19.918;2023-06-22T08:05:24;99056.45;;;26.4;63
61500;BME280;47361;49.996;19.918;2023-06-22T08:07:24;99062.13;;;26.5;62
61500;BME280;47361;49.996;19.918;2023-06-22T08:08:24;99063.16;;;26.6;63
61500;BME280;47361;49.996;19.918;2023-06-22T08:15:25;99063.85;;;26.5;61
61500;BME280;47361;49.996;19.918;2023-06-22T08:22:24;99065.37;;;26.6;62
61500;BME280;47361;49.996;19.918;2023-06-22T08:23:24;99066.81999999999;;;26.7;62
61500;BME280;47361;49.996;19.918;2023-06-22T08:24:24;99065.99;;;26.8;62
61500;BME280;47361;49.996;19.918;2023-06-22T08:25:24;99067.7;;;26.9;62
61500;BME280;47361;49.996;19.918;2023-06-22T08:26:24;99070.09000000001;;;27.0;61
61500;BME280;47361;49.996;19.918;2023-06-22T08:27:24;99071.28;;;27.1;61
61500;BME280;47361;49.996;19.918;2023-06-22T08:28:24;99071.86;;;27.2;61
61500;BME280;47361;49.996;19.918;2023-06-22T08:33:24;99078.29000000001;;;27.3;60
61500;BME280;47361;49.996;19.918;2023-06-22T08:34:24;99075.73999999999;;;27.4;59
61500;BME280;47361;49.996;19.918;2023-06-22T08:36:24;99074.58;;;27.2;58
61500;BME280;47361;49.996;19.918;2023-06-22T08:37:24;99080.38;;;27.1;59
61500;BME280;47361;49.996;19.918;2023-06-22T08:39:24;99076.45;;;26.8;59
61500;BME280;47361;49.996;19.918;2023-06-22T08:41:24;99075.42;;;26.7;60
61500;BME280;47361;49.996;19.918;2023-06-22T08:42:24;99073.75;;;26.6;60
61500;BME280;47361;49.996;19.918;2023-06-22T08:47:24;99070.72;;;26.7;61
61500;BME280;47361;49.996;19.918;2023-06-22T08:48:24;99075.62000000001;;;26.8;61
61500;BME280;47361;49.996;19.918;2023-06-22T08:49:24;99074.05;;;26.9;61
61500;BME280;47361;49.996;19.918;2023-06-22T08:50:24;99078.28;;;27.0;61
61500;BME280;47361;49.996;19.918;2023-06-22T08:52:24;99084.14;;;27.1;60
61500;BME280;47361;49.996;19.918;2023-06-22T08:53:24;99077.67;;;27.2;60
61500;BME280;47361;49.996;19.918;2023-06-22T08:56:24;99079.17;;;27.3;58
61500;BME280;47361;49.996;19.918;2023-06-22T08:58:24;99079.71;;;27.5;58
61500;BME280;47361;49.996;19.918;2023-06-22T09:00:24;99077.44;;;27.6;59
61500;BME280;47361;49.996;19.918;2023-06-22T09:01:24;99074.05;;;27.7;57
61500;BME280;47361;49.996;19.918;2023-06-22T09:02:24;99077.66;;;27.8;57
61500;BME280;47361;49.996;19.918;2023-06-22T09:03:24;99081.67;;;28.0;57
61500;BME280;47361;49.996;19.918;2023-06-22T09:05:24;99081.34999999999;;;28.1;56
61500;BME280;47361;49.996;19.918;2023-06-22T09:07:24;99076.39;;;28.2;55
61500;BME280;47361;49.996;19.918;2023-06-22T09:08:24;99079.3;;;28.3;54
61500;BME280;47361;49.996;19.918;2023-06-22T09:09:24;99072.99;;;28.2;52
61500;BME280;47361;49.996;19.918;2023-06-22T09:10:24;99067.65000000001;;;28.1;53
61500;BME280;47361;49.996;19.918;2023-06-22T09:17:24;99071.32;;;28.0;55
61500;BME280;47361;49.996;19.918;2023-06-22T09:23:24;99072.26000000001;;;28.1;55
61500;BME280;47361;49.996;19.918;2023-06-22T09:24:24;99068.5;;;28.2;54
61500;BME280;47361;49.996;19.918;2023-06-22T09:25:24;99067.88;;;28.3;54
61500;BME280;47361;49.996;19.918;2023-06-22T09:26:24;99067.54;;;28.4;54
61500;BME280;47361;49.996;19.918;2023-06-22T09:27:24;99068.56;;;28.5;55
61500;BME280;47361;49.996;19.918;2023-06-22T09:28:24;99066.64;;;28.6;54
61500;BME280;47361;49.996;19.918;2023-06-22T09:29:24;99069.25;;;28.8;53
61500;BME280;47361;49.996;19.918;2023-06-22T09:32:24;99069.7;;;28.7;52
61500;BME280;47361;49.996;19.918;2023-06-22T09:33:24;99070.31;;;28.6;52
61500;BME280;47361;49.996;19.918;2023-06-22T09:34:24;99067.04999999999;;;28.5;53
61500;BME280;47361;49.996;19.918;2023-06-22T09:35:24;99068.38;;;28.4;53
61500;BME280;47361;49.996;19.918;2023-06-22T09:36:24;99071.25;;;28.3;54
61500;BME280;47361;49.996;19.918;2023-06-22T09:38:24;99075.45999999999;;;28.2;54
61500;BME280;47361;49.996;19.918;2023-06-22T09:39:24;99069.94;;;28.1;54
61500;BME280;47361;49.996;19.918;2023-06-22T09:43:24;99070.79;;;28.2;54
61500;BME280;47361;49.996;19.918;2023-06-22T09:46:24;99073.39;;;28.3;54
61500;BME280;47361;49.996;19.918;2023-06-22T09:47:24;99071.11;;;28.4;53
61500;BME280;47361;49.996;19.918;2023-06-22T09:50:24;99069.9;;;28.5;53
61500;BME280;47361;49.996;19.918;2023-06-22T09:52:24;99075.09;;;28.6;53
61500;BME280;47361;49.996;19.918;2023-06-22T09:53:24;99068.73000000001;;;28.7;53
61500;BME280;47361;49.996;19.918;2023-06-22T09:54:24;99067.55;;;28.8;53
61500;BME280;47361;49.996;19.918;2023-06-22T09:56:24;99068.7;;;28.9;51
61500;BME280;47361;49.996;19.918;2023-06-22T09:58:24;99063.65;;;29.1;53
61500;BME280;47361;49.996;19.918;2023-06-22T10:00:24;99063.37;;;29.2;52
61500;BME280;47361;49.996;19.918;2023-06-22T10:02:24;99065.59;;;29.3;51
61500;BME280;47361;49.996;19.918;2023-06-22T10:04:24;99068.47;;;29.2;50
61500;BME280;47361;49.996;19.918;2023-06-22T10:07:24;99065.78;;;29.3;51
61500;BME280;47361;49.996;19.918;2023-06-22T10:11:24;99062.92;;;29.1;50
61500;BME280;47361;49.996;19.918;2023-06-22T10:14:24;99059.38;;;29.0;51
61500;BME280;47361;49.996;19.918;2023-06-22T10:18:24;99060.33;;;29.1;51
61500;BME280;47361;49.996;19.918;2023-06-22T10:22:24;99057.98999999999;;;29.2;51
61500;BME280;47361;49.996;19.918;2023-06-22T10:24:24;99060.55;;;29.1;51
61500;BME280;47361;49.996;19.918;2023-06-22T10:25:24;99057.18000000001;;;29.0;52
61500;BME280;47361;49.996;19.918;2023-06-22T10:26:24;99057.45;;;28.9;52
61500;BME280;47361;49.996;19.918;2023-06-22T10:29:24;99055.7;;;28.8;52
61500;BME280;47361;49.996;19.918;2023-06-22T10:30:24;99054.04999999999;;;28.7;52
61500;BME280;47361;49.996;19.918;2023-06-22T10:31:24;99056.36;;;28.6;52
61500;BME280;47361;49.996;19.918;2023-06-22T10:33:24;99058.13;;;28.7;52
61500;BME280;47361;49.996;19.918;2023-06-22T10:35:24;99052.28;;;28.8;53
61500;BME280;47361;49.996;19.918;2023-06-22T10:36:24;99050.19;;;28.9;53
61500;BME280;47361;49.996;19.918;2023-06-22T10:37:24;99047.63;;;29.0;52
61500;BME280;47361;49.996;19.918;2023-06-22T10:38:24;99046.55;;;29.1;51
61500;BME280;47361;49.996;19.918;2023-06-22T10:41:24;99041.72;;;29.2;50
61500;BME280;47361;49.996;19.918;2023-06-22T10:42:24;99042.64;;;29.3;51
61500;BME280;47361;49.996;19.918;2023-06-22T10:43:24;99043.19;;;29.4;51
61500;BME280;47361;49.996;19.918;2023-06-22T10:46:24;99034.52;;;29.5;50
61500;BME280;47361;49.996;19.918;2023-06-22T10:47:24;99035.11;;;29.6;50
61500;BME280;47361;49.996;19.918;2023-06-22T10:48:24;99037.81999999999;;;29.8;50
61500;BME280;47361;49.996;19.918;2023-06-22T10:51:24;99031.05;;;29.7;49
61500;BME280;47361;49.996;19.918;2023-06-22T10:56:24;99022.38;;;29.6;50
61500;BME280;47361;49.996;19.918;2023-06-22T10:57:24;99020.75;;;29.7;50
61500;BME280;47361;49.996;19.918;2023-06-22T10:58:24;99019.78;;;29.8;50
61500;BME280;47361;49.996;19.918;2023-06-22T11:01:24;99014.49;;;29.7;50
61500;BME280;47361;49.996;19.918;2023-06-22T11:04:24;99011.75;;;29.8;49
61500;BME280;47361;49.996;19.918;2023-06-22T11:05:24;99016.95999999999;;;29.9;50
61500;BME280;47361;49.996;19.918;2023-06-22T11:06:24;99020.28;;;30.0;49
61500;BME280;47361;49.996;19.918;2023-06-22T11:08:24;99014.18;;;30.1;48
61500;BME280;47361;49.996;19.918;2023-06-22T11:10:24;99012.87;;;30.2;49
61500;BME280;47361;49.996;19.918;2023-06-22T11:11:24;99008.73;;;30.3;49
61500;BME280;47361;49.996;19.918;2023-06-22T11:13:24;99002.92;;;30.2;46
61500;BME280;47361;49.996;19.918;2023-06-22T11:14:24;99008.28;;;30.0;47
61500;BME280;47361;49.996;19.918;2023-06-22T11:15:24;99004.45999999999;;;29.9;47
61500;BME280;47361;49.996;19.918;2023-06-22T11:16:24;99002.51;;;29.8;47
61500;BME280;47361;49.996;19.918;2023-06-22T11:17:24;99004.61;;;29.9;47
61500;BME280;47361;49.996;19.918;2023-06-22T11:18:24;99003.5;;;30.0;47
61500;BME280;47361;49.996;19.918;2023-06-22T11:20:24;98997.88;;;29.9;46
61500;BME280;47361;49.996;19.918;2023-06-22T11:23:24;99003.53;;;30.1;48
61500;BME280;47361;49.996;19.918;2023-06-22T11:25:24;99000.92;;;30.2;47
61500;BME280;47361;49.996;19.918;2023-06-22T11:26:24;99007.26;;;30.3;48
61500;BME280;47361;49.996;19.918;2023-06-22T11:27:24;99003.86;;;30.2;46
61500;BME280;47361;49.996;19.918;2023-06-22T11:30:24;99003.85;;;30.3;48
61500;BME280;47361;49.996;19.918;2023-06-22T11:31:24;99000.35;;;30.4;45
61500;BME280;47361;49.996;19.918;2023-06-22T11:33:24;98992.39;;;30.3;45
61500;BME280;47361;49.996;19.918;2023-06-22T11:36:24;99001.25;;;30.4;46
61500;BME280;47361;49.996;19.918;2023-06-22T11:38:24;98993.61;;;30.5;46
61500;BME280;47361;49.996;19.918;2023-06-22T11:41:24;98988.94;;;30.6;46
61500;BME280;47361;49.996;19.918;2023-06-22T11:42:24;98988.15;;;30.7;46
61500;BME280;47361;49.996;19.918;2023-06-22T11:43:24;98986.79;;;30.8;46
61500;BME280;47361;49.996;19.918;2023-06-22T11:45:24;98991.51000000001;;;30.7;46
61500;BME280;47361;49.996;19.918;2023-06-22T11:48:24;98990.09999999999;;;30.6;45
61500;BME280;47361;49.996;19.918;2023-06-22T11:49:24;98988.98000000001;;;30.5;45
61500;BME280;47361;49.996;19.918;2023-06-22T11:51:24;98988.7;;;30.4;45
61500;BME280;47361;49.996;19.918;2023-06-22T11:53:24;98988.28;;;30.5;45
61500;BME280;47361;49.996;19.918;2023-06-22T11:54:24;98985.25;;;30.4;45
61500;BME280;47361;49.996;19.918;2023-06-22T11:56:24;98982.31;;;30.3;45
61500;BME280;47361;49.996;19.918;2023-06-22T11:59:24;98976.37;;;30.4;46
61500;BME280;47361;49.996;19.918;2023-06-22T12:00:24;98974.36;;;30.5;46
61500;BME280;47361;49.996;19.918;2023-06-22T12:01:24;98971.27;;;30.6;46
61500;BME280;47361;49.996;19.918;2023-06-22T12:02:24;98973.41;;;30.7;47
61500;BME280;47361;49.996;19.918;2023-06-22T12:03:24;98972.96;;;30.9;46
61500;BME280;47361;49.996;19.918;2023-06-22T12:04:24;98972.62;;;31.0;46
61500;BME280;47361;49.996;19.918;2023-06-22T12:06:24;98971.27;;;31.1;45
61500;BME280;47361;49.996;19.918;2023-06-22T12:07:24;98967.94;;;31.2;44
61500;BME280;47361;49.996;19.918;2023-06-22T12:10:25;98964.78;;;31.1;43
61500;BME280;47361;49.996;19.918;2023-06-22T12:11:24;98964.45999999999;;;31.0;43
61500;BME280;47361;49.996;19.918;2023-06-22T12:12:24;98962.7;;;30.9;44
61500;BME280;47361;49.996;19.918;2023-06-22T12:14:24;98969.45;;;31.0;45
61500;BME280;47361;49.996;19.918;2023-06-22T12:15:24;98968.51000000001;;;31.1;45
61500;BME280;47361;49.996;19.918;2023-06-22T12:16:24;98968.33;;;31.2;44
61500;BME280;47361;49.996;19.918;2023-06-22T12:17:24;98971.37;;;31.4;45
61500;BME280;47361;49.996;19.918;2023-06-22T12:20:24;98973.1;;;31.5;45
61500;BME280;47361;49.996;19.918;2023-06-22T12:22:24;98972.2;;;31.7;44
61500;BME280;47361;49.996;19.918;2023-06-22T12:25:24;98972.78;;;31.6;43
61500;BME280;47361;49.996;19.918;2023-06-22T12:26:24;98973.58;;;31.5;42
61500;BME280;47361;49.996;19.918;2023-06-22T12:27:24;98969.53;;;31.3;41
61500;BME280;47361;49.996;19.918;2023-06-22T12:28:24;98968.94;;;31.1;41
61500;BME280;47361;49.996;19.918;2023-06-22T12:29:24;98966.64;;;30.9;42
61500;BME280;47361;49.996;19.918;2023-06-22T12:30:24;98965.74;;;30.8;43
61500;BME280;47361;49.996;19.918;2023-06-22T12:31:24;98967.78;;;30.7;44
61500;BME280;47361;49.996;19.918;2023-06-22T12:32:24;98964.81;;;30.6;43
61500;BME280;47361;49.996;19.918;2023-06-22T12:33:24;98963.31;;;30.7;43
61500;BME280;47361;49.996;19.918;2023-06-22T12:34:24;98965.37;;;30.6;44
61500;BME280;47361;49.996;19.918;2023-06-22T12:35:24;98962.06;;;30.5;44
61500;BME280;47361;49.996;19.918;2023-06-22T12:38:24;98959.0;;;30.6;45
61500;BME280;47361;49.996;19.918;2023-06-22T12:40:24;98956.48;;;30.7;46